Time,TemperatureF,DewpointF,PressureIn,WindDirection,WindDirectionDegrees,WindSpeedMPH,WindSpeedGustMPH,Humidity,HourlyPrecipIn,Conditions,Clouds,dailyrainin,SoftwareType,DateUTC
2013-02-21 00:05:00,11.1,4.4,30.36,WNW,290,0.0,0.0,74,0.00,,,0.01,Wunderground v.1.13,2013-02-21 06:05:00,
2013-02-21 00:15:00,10.5,3.8,30.36,WNW,290,0.0,0.0,74,0.00,,,0.01,Wunderground v.1.13,2013-02-21 06:15:00,
2013-02-21 00:25:00,10.5,4.1,30.36,WNW,290,0.0,0.0,75,0.00,,,0.01,Wunderground v.1.13,2013-02-21 06:25:00,
2013-02-21 00:30:00,11.1,4.7,30.36,NNE,20,1.0,1.0,75,0.00,,,0.01,Wunderground v.1.13,2013-02-21 06:30:00,
2013-02-21 00:40:00,11.6,4.9,30.36,NNE,20,0.0,0.0,74,0.00,,,0.01,Wunderground v.1.13,2013-02-21 06:40:00,
2013-02-21 00:45:00,11.6,4.6,30.36,NNE,20,0.0,0.0,73,0.00,,,0.01,Wunderground v.1.13,2013-02-21 06:45:00,
2013-02-21 00:55:00,11.2,4.2,30.36,NNE,20,0.0,0.0,73,0.00,,,0.01,Wunderground v.1.13,2013-02-21 06:55:00,
2013-02-21 01:05:00,11.6,4.6,30.36,NNE,20,0.0,2.0,73,0.00,,,0.01,Wunderground v.1.13,2013-02-21 07:05:00,
2013-02-21 01:15:00,11.9,4.6,30.36,NNE,20,0.0,2.0,72,0.00,,,0.01,Wunderground v.1.13,2013-02-21 07:15:00,
2013-02-21 01:25:00,11.9,4.6,30.35,NNE,20,0.0,2.0,72,0.00,,,0.01,Wunderground v.1.13,2013-02-21 07:25:00,
2013-02-21 01:35:00,12.1,4.5,30.35,NNE,21,0.0,2.0,71,0.00,,,0.01,Wunderground v.1.13,2013-02-21 07:35:00,
2013-02-21 01:45:00,12.1,4.5,30.35,NNE,19,0.0,2.0,71,0.00,,,0.01,Wunderground v.1.13,2013-02-21 07:45:00,
2013-02-21 01:50:00,12.1,4.2,30.35,NNE,30,1.0,1.0,70,0.00,,,0.01,Wunderground v.1.13,2013-02-21 07:50:00,
2013-02-21 01:55:00,12.1,4.2,30.35,NNE,13,2.0,4.0,70,0.00,,,0.01,Wunderground v.1.13,2013-02-21 07:55:00,
2013-02-21 02:00:00,12.1,4.2,30.35,North,360,1.0,1.0,70,0.00,,,0.01,Wunderground v.1.13,2013-02-21 08:00:00,
2013-02-21 02:05:00,11.9,4.0,30.35,North,360,0.0,6.0,70,0.00,,,0.01,Wunderground v.1.13,2013-02-21 08:05:00,
2013-02-21 02:15:00,11.6,3.7,30.35,North,360,0.0,6.0,70,0.00,,,0.01,Wunderground v.1.13,2013-02-21 08:15:00,
2013-02-21 02:20:00,11.4,3.5,30.36,North,360,0.0,6.0,70,0.00,,,0.01,Wunderground v.1.13,2013-02-21 08:20:00,
2013-02-21 02:25:00,11.1,3.2,30.36,North,360,0.0,6.0,70,0.00,,,0.01,Wunderground v.1.13,2013-02-21 08:25:00,
2013-02-21 02:35:00,10.4,2.9,30.36,North,360,0.0,6.0,71,0.00,,,0.01,Wunderground v.1.13,2013-02-21 08:35:00,
2013-02-21 02:45:00,9.7,2.5,30.36,North,360,0.0,6.0,72,0.00,,,0.01,Wunderground v.1.13,2013-02-21 08:45:00,
2013-02-21 02:50:00,9.2,2.3,30.35,North,360,0.0,6.0,73,0.00,,,0.01,Wunderground v.1.13,2013-02-21 08:50:00,
2013-02-21 02:55:00,8.8,1.9,30.35,North,360,0.0,6.0,73,0.00,,,0.01,Wunderground v.1.13,2013-02-21 08:55:00,
2013-02-21 03:00:00,8.8,2.2,30.35,North,5,0.0,6.0,74,0.00,,,0.01,Wunderground v.1.13,2013-02-21 09:00:00,
2013-02-21 03:05:00,8.8,2.2,30.35,North,5,0.0,6.0,74,0.00,,,0.01,Wunderground v.1.13,2013-02-21 09:05:00,
2013-02-21 03:15:00,8.8,2.5,30.35,North,5,0.0,6.0,75,0.00,,,0.01,Wunderground v.1.13,2013-02-21 09:15:00,
2013-02-21 03:25:00,8.8,2.5,30.35,North,5,0.0,6.0,75,0.00,,,0.01,Wunderground v.1.13,2013-02-21 09:25:00,
2013-02-21 03:30:00,8.8,2.5,30.35,North,5,0.0,6.0,75,0.00,,,0.01,Wunderground v.1.13,2013-02-21 09:30:00,
2013-02-21 03:35:00,8.6,2.3,30.36,North,5,0.0,6.0,75,0.00,,,0.01,Wunderground v.1.13,2013-02-21 09:35:00,
2013-02-21 03:45:00,8.4,2.1,30.36,North,5,0.0,6.0,75,0.00,,,0.01,Wunderground v.1.13,2013-02-21 09:45:00,
2013-02-21 03:55:00,8.3,2.3,30.37,North,5,0.0,6.0,76,0.00,,,0.01,Wunderground v.1.13,2013-02-21 09:55:00,
2013-02-21 04:00:00,8.3,2.3,30.37,North,5,0.0,6.0,76,0.00,,,0.01,Wunderground v.1.13,2013-02-21 10:00:00,
2013-02-21 04:05:00,8.1,2.1,30.37,North,5,0.0,0.0,76,0.00,,,0.01,Wunderground v.1.13,2013-02-21 10:05:00,
2013-02-21 04:15:00,8.1,2.1,30.37,North,5,0.0,0.0,76,0.00,,,0.01,Wunderground v.1.13,2013-02-21 10:15:00,
2013-02-21 04:25:00,8.1,2.4,30.38,North,5,0.0,0.0,77,0.00,,,0.01,Wunderground v.1.13,2013-02-21 10:25:00,
2013-02-21 04:35:00,8.1,2.4,30.39,North,5,0.0,0.0,77,0.00,,,0.01,Wunderground v.1.13,2013-02-21 10:35:00,
2013-02-21 04:40:00,8.3,2.6,30.39,North,5,0.0,0.0,77,0.00,,,0.01,Wunderground v.1.13,2013-02-21 10:40:00,
2013-02-21 04:50:00,8.4,2.7,30.40,North,5,0.0,0.0,77,0.00,,,0.01,Wunderground v.1.13,2013-02-21 10:50:00,
2013-02-21 04:55:00,8.4,2.7,30.40,North,5,0.0,0.0,77,0.00,,,0.01,Wunderground v.1.13,2013-02-21 10:55:00,
2013-02-21 05:05:00,8.6,3.1,30.40,North,5,0.0,0.0,78,0.00,,,0.00,Wunderground v.1.13,2013-02-21 11:05:00,
2013-02-21 05:15:00,8.6,3.1,30.40,North,5,0.0,0.0,78,0.00,,,0.00,Wunderground v.1.13,2013-02-21 11:15:00,
2013-02-21 05:25:00,8.6,3.1,30.39,North,9,0.0,0.0,78,0.00,,,0.00,Wunderground v.1.13,2013-02-21 11:25:00,
2013-02-21 05:35:00,8.6,3.1,30.39,North,5,0.0,5.0,78,0.00,,,0.00,Wunderground v.1.13,2013-02-21 11:35:00,
2013-02-21 05:45:00,8.8,3.3,30.39,NNW,347,2.0,3.0,78,0.00,,,0.00,Wunderground v.1.13,2013-02-21 11:45:00,
2013-02-21 05:55:00,8.6,2.9,30.37,North,355,4.0,4.0,77,0.00,,,0.00,Wunderground v.1.13,2013-02-21 11:55:00,
2013-02-21 06:05:00,8.6,2.9,30.34,NNE,28,4.0,4.0,77,0.00,,,0.00,Wunderground v.1.13,2013-02-21 12:05:00,
2013-02-21 06:15:00,9.0,3.0,30.34,North,360,3.0,3.0,76,0.00,,,0.00,Wunderground v.1.13,2013-02-21 12:15:00,
2013-02-21 06:25:00,8.6,2.6,30.32,North,9,3.0,11.0,76,0.00,,,0.00,Wunderground v.1.13,2013-02-21 12:25:00,
2013-02-21 06:30:00,8.6,2.6,30.32,NNE,20,3.0,11.0,76,0.00,,,0.00,Wunderground v.1.13,2013-02-21 12:30:00,
2013-02-21 06:40:00,8.6,2.6,30.33,NNE,30,1.0,1.0,76,0.00,,,0.00,Wunderground v.1.13,2013-02-21 12:40:00,
2013-02-21 06:50:00,8.6,2.9,30.39,NNE,30,0.0,11.0,77,0.00,,,0.00,Wunderground v.1.13,2013-02-21 12:50:00,
2013-02-21 06:55:00,8.6,2.9,30.39,NNE,30,0.0,11.0,77,0.00,,,0.00,Wunderground v.1.13,2013-02-21 12:55:00,
2013-02-21 07:05:00,9.0,3.3,30.38,NNE,30,0.0,5.0,77,0.00,,,0.00,Wunderground v.1.13,2013-02-21 13:05:00,
2013-02-21 07:15:00,9.3,3.8,30.38,NNE,30,0.0,5.0,78,0.00,,,0.00,Wunderground v.1.13,2013-02-21 13:15:00,
2013-02-21 07:20:00,9.5,4.0,30.38,NNE,30,0.0,5.0,78,0.00,,,0.00,Wunderground v.1.13,2013-02-21 13:20:00,
2013-02-21 07:25:00,9.9,4.4,30.38,NNE,30,0.0,5.0,78,0.00,,,0.00,Wunderground v.1.13,2013-02-21 13:25:00,
2013-02-21 07:30:00,10.0,4.2,30.38,NNE,30,0.0,5.0,77,0.00,,,0.00,Wunderground v.1.13,2013-02-21 13:30:00,
2013-02-21 07:35:00,10.4,4.6,30.39,NNE,30,0.0,5.0,77,0.00,,,0.00,Wunderground v.1.13,2013-02-21 13:35:00,
2013-02-21 07:45:00,10.9,5.1,30.39,NNE,30,0.0,5.0,77,0.00,,,0.00,Wunderground v.1.13,2013-02-21 13:45:00,
2013-02-21 07:55:00,11.1,5.3,30.40,NNE,30,0.0,5.0,77,0.00,,,0.00,Wunderground v.1.13,2013-02-21 13:55:00,
2013-02-21 08:00:00,11.2,5.1,30.40,NNE,28,0.0,5.0,76,0.00,,,0.00,Wunderground v.1.13,2013-02-21 14:00:00,
2013-02-21 08:05:00,11.2,5.1,30.37,NNE,22,1.0,1.0,76,0.00,,,0.00,Wunderground v.1.13,2013-02-21 14:05:00,
2013-02-21 08:15:00,11.6,5.8,30.37,NNE,22,0.0,7.0,77,0.00,,,0.00,Wunderground v.1.13,2013-02-21 14:15:00,
2013-02-21 08:20:00,12.1,6.3,30.39,NNE,22,0.0,7.0,77,0.00,,,0.00,Wunderground v.1.13,2013-02-21 14:20:00,
2013-02-21 08:30:00,12.9,7.0,30.39,NNE,22,0.0,7.0,77,0.00,,,0.00,Wunderground v.1.13,2013-02-21 14:30:00,
2013-02-21 08:40:00,13.6,7.4,30.39,NNE,22,0.0,7.0,76,0.00,,,0.00,Wunderground v.1.13,2013-02-21 14:40:00,
2013-02-21 08:45:00,14.0,7.5,30.39,NNE,22,0.0,7.0,75,0.00,,,0.00,Wunderground v.1.13,2013-02-21 14:45:00,
2013-02-21 08:55:00,14.4,7.9,30.39,NNE,22,0.0,7.0,75,0.00,,,0.00,Wunderground v.1.13,2013-02-21 14:55:00,
2013-02-21 09:05:00,14.1,7.3,30.38,NNE,19,1.0,5.0,74,0.00,,,0.00,Wunderground v.1.13,2013-02-21 15:05:00,
2013-02-21 09:15:00,14.3,7.8,30.38,NNE,19,1.0,5.0,75,0.00,,,0.00,Wunderground v.1.13,2013-02-21 15:15:00,
2013-02-21 09:25:00,14.9,8.4,30.38,NNE,12,2.0,2.0,75,0.00,,,0.00,Wunderground v.1.13,2013-02-21 15:25:00,
2013-02-21 09:30:00,15.1,8.9,30.38,North,5,3.0,3.0,76,0.00,,,0.00,Wunderground v.1.13,2013-02-21 15:30:00,
2013-02-21 09:35:00,15.4,9.2,30.38,North,5,1.0,5.0,76,0.00,,,0.00,Wunderground v.1.13,2013-02-21 15:35:00,
2013-02-21 09:45:00,15.7,9.5,30.38,North,5,1.0,1.0,76,0.00,,,0.00,Wunderground v.1.13,2013-02-21 15:45:00,
2013-02-21 09:50:00,15.9,9.7,30.37,North,360,1.0,5.0,76,0.00,,,0.00,Wunderground v.1.13,2013-02-21 15:50:00,
2013-02-21 10:00:00,16.1,9.9,30.37,NNW,348,1.0,5.0,76,0.00,,,0.00,Wunderground v.1.13,2013-02-21 16:00:00,
2013-02-21 10:05:00,16.1,9.9,30.38,NNW,348,1.0,1.0,76,0.00,,,0.00,Wunderground v.1.13,2013-02-21 16:05:00,
2013-02-21 10:15:00,16.2,10.0,30.38,NNW,348,1.0,1.0,76,0.00,,,0.00,Wunderground v.1.13,2013-02-21 16:15:00,
2013-02-21 10:25:00,16.5,10.0,30.38,North,355,1.0,1.0,75,0.00,,,0.00,Wunderground v.1.13,2013-02-21 16:25:00,
2013-02-21 10:35:00,16.9,10.3,30.37,North,355,1.0,1.0,75,0.00,,,0.00,Wunderground v.1.13,2013-02-21 16:35:00,
2013-02-21 10:40:00,17.0,10.4,30.37,North,350,1.0,6.0,75,0.00,,,0.00,Wunderground v.1.13,2013-02-21 16:40:00,
2013-02-21 10:50:00,16.9,10.3,30.38,NNW,347,1.0,1.0,75,0.00,,,0.00,Wunderground v.1.13,2013-02-21 16:50:00,
2013-02-21 11:00:00,16.9,10.3,30.38,NNW,346,0.0,6.0,75,0.00,,,0.00,Wunderground v.1.13,2013-02-21 17:00:00,
2013-02-21 11:05:00,17.2,10.6,30.37,NNW,348,1.0,1.0,75,0.00,,,0.00,Wunderground v.1.13,2013-02-21 17:05:00,
2013-02-21 11:15:00,17.7,11.4,30.37,NNW,344,1.0,1.0,76,0.00,,,0.00,Wunderground v.1.13,2013-02-21 17:15:00,
2013-02-21 11:20:00,17.8,11.5,30.37,NNW,344,1.0,1.0,76,0.00,,,0.00,Wunderground v.1.13,2013-02-21 17:20:00,
2013-02-21 11:25:00,18.0,11.7,30.37,NNW,344,1.0,1.0,76,0.00,,,0.00,Wunderground v.1.13,2013-02-21 17:25:00,
2013-02-21 11:35:00,18.3,12.0,30.35,NNW,339,1.0,1.0,76,0.00,,,0.00,Wunderground v.1.13,2013-02-21 17:35:00,
2013-02-21 11:40:00,18.6,12.3,30.35,NNW,338,1.0,1.0,76,0.00,,,0.00,Wunderground v.1.13,2013-02-21 17:40:00,
2013-02-21 11:50:00,18.8,12.8,30.34,NNW,342,2.0,2.0,77,0.00,,,0.00,Wunderground v.1.13,2013-02-21 17:50:00,
2013-02-21 12:00:00,18.9,13.2,30.34,NNW,345,2.0,2.0,78,0.00,,,0.00,Wunderground v.1.13,2013-02-21 18:00:00,
2013-02-21 12:05:00,18.9,13.2,30.32,NNE,19,3.0,11.0,78,0.00,,,0.00,Wunderground v.1.13,2013-02-21 18:05:00,
2013-02-21 12:15:00,18.9,13.2,30.32,NE,46,5.0,5.0,78,0.00,,,0.00,Wunderground v.1.13,2013-02-21 18:15:00,
2013-02-21 12:25:00,18.9,13.2,30.30,NE,49,6.0,11.0,78,0.00,,,0.00,Wunderground v.1.13,2013-02-21 18:25:00,
2013-02-21 12:35:00,19.4,13.9,30.30,NNE,15,4.0,4.0,79,0.00,,,0.00,Wunderground v.1.13,2013-02-21 18:35:00,
2013-02-21 12:40:00,19.5,14.0,30.30,North,9,3.0,3.0,79,0.00,,,0.00,Wunderground v.1.13,2013-02-21 18:40:00,
2013-02-21 12:45:00,19.7,14.2,30.30,NNE,13,3.0,3.0,79,0.00,,,0.00,Wunderground v.1.13,2013-02-21 18:45:00,
2013-02-21 12:55:00,20.0,14.5,30.29,NNE,31,2.0,11.0,79,0.00,,,0.00,Wunderground v.1.13,2013-02-21 18:55:00,
2013-02-21 13:00:00,20.0,14.5,30.29,NNE,29,4.0,11.0,79,0.00,,,0.00,Wunderground v.1.13,2013-02-21 19:00:00,
2013-02-21 13:05:00,20.0,14.5,30.29,NNE,20,5.0,5.0,79,0.00,,,0.00,Wunderground v.1.13,2013-02-21 19:05:00,
2013-02-21 13:15:00,20.5,15.0,30.29,North,5,3.0,11.0,79,0.00,,,0.00,Wunderground v.1.13,2013-02-21 19:15:00,
2013-02-21 13:20:00,20.5,15.0,30.27,North,9,4.0,4.0,79,0.00,,,0.00,Wunderground v.1.13,2013-02-21 19:20:00,
2013-02-21 13:25:00,20.6,15.1,30.27,NNE,22,4.0,11.0,79,0.00,,,0.00,Wunderground v.1.13,2013-02-21 19:25:00,
2013-02-21 13:30:00,20.8,15.3,30.27,North,5,4.0,11.0,79,0.00,,,0.00,Wunderground v.1.13,2013-02-21 19:30:00,
2013-02-21 13:40:00,21.1,15.6,30.26,NNE,12,4.0,11.0,79,0.00,,,0.00,Wunderground v.1.13,2013-02-21 19:40:00,
2013-02-21 13:45:00,21.1,15.6,30.26,NE,40,5.0,11.0,79,0.00,,,0.00,Wunderground v.1.13,2013-02-21 19:45:00,
2013-02-21 13:55:00,21.0,15.8,30.23,NNE,22,6.0,11.0,80,0.00,,,0.00,Wunderground v.1.13,2013-02-21 19:55:00,
2013-02-21 14:05:00,21.1,15.9,30.22,NNE,18,5.0,5.0,80,0.00,,,0.00,Wunderground v.1.13,2013-02-21 20:05:00,
2013-02-21 14:15:00,21.1,15.9,30.22,NNE,26,6.0,13.0,80,0.00,,,0.00,Wunderground v.1.13,2013-02-21 20:15:00,
2013-02-21 14:20:00,21.1,16.2,30.24,NNE,28,5.0,13.0,81,0.00,,,0.00,Wunderground v.1.13,2013-02-21 20:20:00,
2013-02-21 14:30:00,21.1,16.2,30.24,NE,46,4.0,13.0,81,0.00,,,0.00,Wunderground v.1.13,2013-02-21 20:30:00,
2013-02-21 14:40:00,21.1,16.2,30.24,North,5,5.0,13.0,81,0.00,,,0.00,Wunderground v.1.13,2013-02-21 20:40:00,
2013-02-21 14:50:00,21.3,16.7,30.24,NE,36,3.0,3.0,82,0.00,,,0.00,Wunderground v.1.13,2013-02-21 20:50:00,
2013-02-21 14:55:00,21.3,16.7,30.24,NNE,16,2.0,2.0,82,0.00,,,0.00,Wunderground v.1.13,2013-02-21 20:55:00,
2013-02-21 15:05:00,21.6,17.0,30.24,North,360,3.0,3.0,82,0.00,,,0.00,Wunderground v.1.13,2013-02-21 21:05:00,
2013-02-21 15:15:00,21.8,17.4,30.24,North,11,4.0,13.0,83,0.00,,,0.00,Wunderground v.1.13,2013-02-21 21:15:00,
2013-02-21 15:25:00,21.9,17.5,30.24,NNE,18,4.0,4.0,83,0.00,,,0.00,Wunderground v.1.13,2013-02-21 21:25:00,
2013-02-21 15:35:00,22.2,18.1,30.24,NNE,18,2.0,2.0,84,0.00,,,0.00,Wunderground v.1.13,2013-02-21 21:35:00,
2013-02-21 15:45:00,22.4,18.3,30.24,North,360,4.0,4.0,84,0.00,,,0.00,Wunderground v.1.13,2013-02-21 21:45:00,
2013-02-21 15:55:00,22.5,18.7,30.24,NNE,22,4.0,13.0,85,0.00,,,0.00,Wunderground v.1.13,2013-02-21 21:55:00,
2013-02-21 16:05:00,22.7,18.9,30.23,NE,34,3.0,10.0,85,0.00,,,0.00,Wunderground v.1.13,2013-02-21 22:05:00,
2013-02-21 16:15:00,22.9,19.3,30.23,NNE,17,2.0,2.0,86,0.00,,,0.00,Wunderground v.1.13,2013-02-21 22:15:00,
2013-02-21 16:20:00,23.0,19.4,30.21,NE,48,2.0,10.0,86,0.00,,,0.00,Wunderground v.1.13,2013-02-21 22:20:00,
2013-02-21 16:30:00,23.8,20.5,30.21,ENE,60,4.0,10.0,87,0.00,,,0.00,Wunderground v.1.13,2013-02-21 22:30:00,
2013-02-21 16:40:00,24.2,21.2,30.21,NE,49,5.0,10.0,88,0.00,,,0.00,Wunderground v.1.13,2013-02-21 22:40:00,
2013-02-21 16:50:00,24.4,21.6,30.21,NE,46,5.0,10.0,89,0.00,,,0.00,Wunderground v.1.13,2013-02-21 22:50:00,
2013-02-21 17:00:00,24.4,21.6,30.21,ENE,73,5.0,10.0,89,0.00,,,0.00,Wunderground v.1.13,2013-02-21 23:00:00,
2013-02-21 17:05:00,24.4,21.9,30.20,NE,38,5.0,5.0,90,0.00,,,0.00,Wunderground v.1.13,2013-02-21 23:05:00,
2013-02-21 17:15:00,24.4,21.9,30.20,ENE,59,4.0,13.0,90,0.00,,,0.00,Wunderground v.1.13,2013-02-21 23:15:00,
2013-02-21 17:20:00,24.4,21.9,30.20,ENE,58,4.0,13.0,90,0.00,,,0.00,Wunderground v.1.13,2013-02-21 23:20:00,
2013-02-21 17:30:00,24.4,21.9,30.20,NE,49,4.0,13.0,90,0.00,,,0.00,Wunderground v.1.13,2013-02-21 23:30:00,
2013-02-21 17:35:00,24.5,22.0,30.19,NE,47,4.0,4.0,90,0.00,,,0.00,Wunderground v.1.13,2013-02-21 23:35:00,
2013-02-21 17:40:00,24.5,22.0,30.19,ENE,65,5.0,13.0,90,0.00,,,0.00,Wunderground v.1.13,2013-02-21 23:40:00,
2013-02-21 17:45:00,24.5,22.0,30.19,NNE,24,5.0,5.0,90,0.00,,,0.00,Wunderground v.1.13,2013-02-21 23:45:00,
2013-02-21 17:55:00,24.5,22.0,30.17,NE,46,5.0,13.0,90,0.00,,,0.00,Wunderground v.1.13,2013-02-21 23:55:00,
2013-02-21 18:00:00,24.7,22.4,30.17,ENE,63,4.0,4.0,91,0.00,,,0.00,Wunderground v.1.13,2013-02-22 00:00:00,
2013-02-21 18:05:00,24.7,22.4,30.17,ENE,68,3.0,12.0,91,0.00,,,0.00,Wunderground v.1.13,2013-02-22 00:05:00,
2013-02-21 18:15:00,25.1,22.8,30.17,ENE,70,5.0,5.0,91,0.00,,,0.00,Wunderground v.1.13,2013-02-22 00:15:00,
2013-02-21 18:25:00,25.3,22.8,30.17,East,88,5.0,12.0,90,0.00,,,0.00,Wunderground v.1.13,2013-02-22 00:25:00,
2013-02-21 18:30:00,25.1,22.6,30.17,ENE,77,6.0,12.0,90,0.00,,,0.00,Wunderground v.1.13,2013-02-22 00:30:00,
2013-02-21 18:40:00,25.1,22.3,30.17,East,98,5.0,5.0,89,0.00,,,0.00,Wunderground v.1.13,2013-02-22 00:40:00,
2013-02-21 18:45:00,25.1,22.3,30.17,East,88,5.0,12.0,89,0.00,,,0.00,Wunderground v.1.13,2013-02-22 00:45:00,
2013-02-21 18:55:00,25.0,21.9,30.17,East,82,5.0,12.0,88,0.00,,,0.00,Wunderground v.1.13,2013-02-22 00:55:00,
2013-02-21 19:05:00,25.0,21.7,30.16,East,80,7.0,7.0,87,0.00,,,0.00,Wunderground v.1.13,2013-02-22 01:05:00,
2013-02-21 19:15:00,25.0,21.7,30.16,East,86,5.0,12.0,87,0.00,,,0.00,Wunderground v.1.13,2013-02-22 01:15:00,
2013-02-21 19:20:00,25.0,21.4,30.16,East,86,5.0,12.0,86,0.00,,,0.00,Wunderground v.1.13,2013-02-22 01:20:00,
2013-02-21 19:25:00,25.0,21.4,30.16,ENE,78,5.0,12.0,86,0.00,,,0.00,Wunderground v.1.13,2013-02-22 01:25:00,
2013-02-21 19:35:00,25.0,21.1,30.14,ESE,120,5.0,12.0,85,0.00,,,0.00,Wunderground v.1.13,2013-02-22 01:35:00,
2013-02-21 19:40:00,25.0,21.1,30.14,East,89,5.0,12.0,85,0.00,,,0.00,Wunderground v.1.13,2013-02-22 01:40:00,
2013-02-21 19:45:00,25.0,21.1,30.14,ENE,61,5.0,12.0,85,0.00,,,0.00,Wunderground v.1.13,2013-02-22 01:45:00,
2013-02-21 19:55:00,25.0,21.1,30.12,East,91,5.0,5.0,85,0.00,,,0.00,Wunderground v.1.13,2013-02-22 01:55:00,
2013-02-21 20:00:00,25.1,20.9,30.12,NE,36,5.0,5.0,84,0.00,,,0.00,Wunderground v.1.13,2013-02-22 02:00:00,
2013-02-21 20:05:00,25.1,20.9,30.11,ENE,60,6.0,6.0,84,0.00,,,0.00,Wunderground v.1.13,2013-02-22 02:05:00,
2013-02-21 20:15:00,25.1,20.9,30.11,SE,126,6.0,11.0,84,0.00,,,0.00,Wunderground v.1.13,2013-02-22 02:15:00,
2013-02-21 20:25:00,25.1,20.7,30.09,ENE,76,7.0,11.0,83,0.00,,,0.00,Wunderground v.1.13,2013-02-22 02:25:00,
2013-02-21 20:30:00,25.3,20.9,30.09,ENE,70,6.0,11.0,83,0.00,,,0.00,Wunderground v.1.13,2013-02-22 02:30:00,
2013-02-21 20:40:00,25.3,20.9,30.07,ENE,71,6.0,11.0,83,0.00,,,0.00,Wunderground v.1.13,2013-02-22 02:40:00,
2013-02-21 20:50:00,25.4,20.7,30.06,ENE,73,6.0,11.0,82,0.00,,,0.00,Wunderground v.1.13,2013-02-22 02:50:00,
2013-02-21 21:00:00,25.6,20.6,30.06,East,86,7.0,7.0,81,0.00,,,0.00,Wunderground v.1.13,2013-02-22 03:00:00,
2013-02-21 21:05:00,25.6,20.6,30.07,East,91,5.0,14.0,81,0.00,,,0.00,Wunderground v.1.13,2013-02-22 03:05:00,
2013-02-21 21:15:00,25.6,20.6,30.07,ENE,66,6.0,14.0,81,0.00,,,0.00,Wunderground v.1.13,2013-02-22 03:15:00,
2013-02-21 21:20:00,25.6,20.3,30.07,ENE,71,5.0,14.0,80,0.00,,,0.00,Wunderground v.1.13,2013-02-22 03:20:00,
2013-02-21 21:30:00,25.4,19.5,30.07,East,96,7.0,14.0,78,0.00,,,0.00,Wunderground v.1.13,2013-02-22 03:30:00,
2013-02-21 21:35:00,25.4,19.5,30.08,ENE,78,6.0,6.0,78,0.00,,,0.00,Wunderground v.1.13,2013-02-22 03:35:00,
2013-02-21 21:45:00,25.3,19.1,30.08,ENE,65,5.0,14.0,77,0.00,,,0.00,Wunderground v.1.13,2013-02-22 03:45:00,
2013-02-21 21:50:00,25.1,19.2,30.06,East,92,5.0,14.0,78,0.00,,,0.00,Wunderground v.1.13,2013-02-22 03:50:00,
2013-02-21 22:00:00,25.1,19.2,30.06,ENE,76,4.0,14.0,78,0.00,,,0.00,Wunderground v.1.13,2013-02-22 04:00:00,
2013-02-21 22:05:00,25.0,19.1,30.06,East,98,5.0,5.0,78,0.00,,,0.00,Wunderground v.1.13,2013-02-22 04:05:00,
2013-02-21 22:15:00,25.0,19.1,30.06,East,93,5.0,13.0,78,0.00,,,0.00,Wunderground v.1.13,2013-02-22 04:15:00,
2013-02-21 22:25:00,24.8,19.2,30.04,East,86,5.0,13.0,79,0.00,,,0.00,Wunderground v.1.13,2013-02-22 04:25:00,
2013-02-21 22:30:00,24.8,19.2,30.04,ESE,105,6.0,13.0,79,0.00,,,0.00,Wunderground v.1.13,2013-02-22 04:30:00,
2013-02-21 22:35:00,24.8,19.2,30.05,East,84,6.0,6.0,79,0.00,,,0.00,Wunderground v.1.13,2013-02-22 04:35:00,
2013-02-21 22:45:00,24.8,19.2,30.05,East,85,5.0,5.0,79,0.00,,,0.00,Wunderground v.1.13,2013-02-22 04:45:00,
2013-02-21 22:50:00,24.8,19.2,30.05,ENE,71,5.0,13.0,79,0.00,,,0.00,Wunderground v.1.13,2013-02-22 04:50:00,
2013-02-21 22:55:00,24.8,19.5,30.05,East,86,5.0,5.0,80,0.00,,,0.00,Wunderground v.1.13,2013-02-22 04:55:00,
2013-02-21 23:00:00,24.8,19.5,30.05,East,92,5.0,13.0,80,0.00,,,0.00,Wunderground v.1.13,2013-02-22 05:00:00,
2013-02-21 23:05:00,24.8,19.5,30.04,ENE,70,5.0,5.0,80,0.00,,,0.00,Wunderground v.1.13,2013-02-22 05:05:00,
2013-02-21 23:10:00,24.8,19.5,30.04,East,80,4.0,4.0,80,0.00,,,0.00,Wunderground v.1.13,2013-02-22 05:10:00,
2013-02-21 23:15:00,24.8,19.5,30.04,ESE,110,4.0,14.0,80,0.00,,,0.00,Wunderground v.1.13,2013-02-22 05:15:00,
2013-02-21 23:20:00,24.8,19.8,30.04,East,87,5.0,14.0,81,0.00,,,0.00,Wunderground v.1.13,2013-02-22 05:20:00,
2013-02-21 23:30:00,24.8,19.8,30.04,ESE,105,6.0,14.0,81,0.00,,,0.00,Wunderground v.1.13,2013-02-22 05:30:00,
2013-02-21 23:35:00,24.8,19.8,30.04,East,86,5.0,14.0,81,0.00,,,0.00,Wunderground v.1.13,2013-02-22 05:35:00,
2013-02-21 23:45:00,24.8,19.8,30.04,ENE,78,6.0,6.0,81,0.00,,,0.00,Wunderground v.1.13,2013-02-22 05:45:00,
2013-02-21 23:50:00,24.7,20.0,30.03,ESE,105,5.0,5.0,82,0.00,,,0.00,Wunderground v.1.13,2013-02-22 05:50:00,
2013-02-21 23:55:00,24.7,20.0,30.03,East,83,4.0,4.0,82,0.00,,,0.00,Wunderground v.1.13,2013-02-22 05:55:00,